createdAt,value
2022-10-11T00:01:20.016Z,13.32
2022-10-11T00:03:46.546Z,13.29
2022-10-11T00:06:13.119Z,13.28
2022-10-11T00:08:39.696Z,13.29
2022-10-11T00:11:07.678Z,13.26
2022-10-11T00:13:35.097Z,13.29
2022-10-11T00:16:07.813Z,13.28
2022-10-11T00:18:34.612Z,13.34
2022-10-11T00:21:06.729Z,13.33
2022-10-11T00:23:33.526Z,13.35
2022-10-11T00:26:03.058Z,13.34
2022-10-11T00:28:30.155Z,13.38
2022-10-11T00:30:56.846Z,13.38
2022-10-11T00:33:23.507Z,13.40
2022-10-11T00:35:50.168Z,13.39
2022-10-11T00:38:17.120Z,13.38
2022-10-11T00:40:44.418Z,13.38
2022-10-11T00:43:20.474Z,13.34
2022-10-11T00:46:00.941Z,13.32
2022-10-11T00:48:42.708Z,13.30
2022-10-11T00:51:36.128Z,13.32
2022-10-11T00:54:03.988Z,13.24
2022-10-11T00:56:36.451Z,13.19
2022-10-11T00:59:06.289Z,13.19
2022-10-11T01:01:33.031Z,13.18
2022-10-11T01:04:00.639Z,13.15
2022-10-11T01:06:27.453Z,13.12
2022-10-11T01:08:54.237Z,13.12
2022-10-11T01:11:25.905Z,13.08
2022-10-11T01:14:23.442Z,13.06
2022-10-11T01:17:07.926Z,13.04
2022-10-11T01:19:52.967Z,13.02
2022-10-11T01:22:43.690Z,13.01
2022-10-11T01:25:52.255Z,12.96
2022-10-11T01:28:24.718Z,12.96
2022-10-11T01:30:54.744Z,12.90
2022-10-11T01:33:28.910Z,12.87
2022-10-11T01:36:20.198Z,12.83
2022-10-11T01:38:57.325Z,12.81
2022-10-11T01:41:27.616Z,12.81
2022-10-11T01:43:58.940Z,12.79
2022-10-11T01:46:27.225Z,12.77
2022-10-11T01:48:56.971Z,12.75
2022-10-11T01:51:27.165Z,12.71
2022-10-11T01:54:04.585Z,12.71
2022-10-11T01:56:49.725Z,12.73
2022-10-11T01:59:23.216Z,12.71
2022-10-11T02:01:58.450Z,12.71
2022-10-11T02:04:48.628Z,12.71
2022-10-11T02:07:25.170Z,12.70
2022-10-11T02:10:11.228Z,12.71
2022-10-11T02:12:42.123Z,12.74
2022-10-11T02:15:11.735Z,12.75
2022-10-11T02:17:44.765Z,12.76
2022-10-11T02:20:17.286Z,12.76
2022-10-11T02:22:47.705Z,12.78
2022-10-11T02:25:19.836Z,12.76
2022-10-11T02:27:48.787Z,12.76
2022-10-11T02:30:16.170Z,12.78
2022-10-11T02:32:46.449Z,12.76
2022-10-11T02:35:14.038Z,12.75
2022-10-11T02:37:40.482Z,12.73
2022-10-11T02:40:16.675Z,12.72
2022-10-11T02:42:53.527Z,12.71
2022-10-11T02:45:27.700Z,12.65
2022-10-11T02:47:54.869Z,12.70
2022-10-11T02:50:22.210Z,12.65
2022-10-11T02:52:48.798Z,12.63
2022-10-11T02:55:15.535Z,12.60
2022-10-11T02:57:41.998Z,12.60
2022-10-11T03:00:09.308Z,12.55
2022-10-11T03:02:35.875Z,12.57
2022-10-11T03:05:02.550Z,12.55
2022-10-11T03:07:29.036Z,12.55
2022-10-11T03:09:55.519Z,12.52
2022-10-11T03:12:21.988Z,12.51
2022-10-11T03:14:48.558Z,12.46
2022-10-11T03:17:35.177Z,12.43
2022-10-11T03:20:01.654Z,12.39
2022-10-11T03:22:28.143Z,12.38
2022-10-11T03:24:55.942Z,12.34
2022-10-11T03:27:23.987Z,12.33
2022-10-11T03:29:50.515Z,12.31
2022-10-11T03:32:17.339Z,12.30
2022-10-11T03:34:43.827Z,12.27
2022-10-11T03:37:10.372Z,12.25
2022-10-11T03:39:37.954Z,12.24
2022-10-11T03:42:04.704Z,12.22
2022-10-11T03:44:31.161Z,12.19
2022-10-11T03:46:57.694Z,12.19
2022-10-11T03:49:24.793Z,12.23
2022-10-11T03:51:51.285Z,12.23
2022-10-11T03:54:17.842Z,12.20
2022-10-11T03:56:44.473Z,12.18
2022-10-11T03:59:10.936Z,12.20
2022-10-11T04:01:38.547Z,12.22
2022-10-11T04:04:05.594Z,12.22
2022-10-11T04:06:32.334Z,12.23
2022-10-11T04:08:58.927Z,12.23
2022-10-11T04:11:25.435Z,12.24
2022-10-11T04:13:51.893Z,12.23
2022-10-11T04:16:18.384Z,12.24
2022-10-11T04:18:44.905Z,12.25
2022-10-11T04:21:11.409Z,12.23
2022-10-11T04:23:37.899Z,12.22
2022-10-11T04:26:08.272Z,12.20
2022-10-11T04:28:36.036Z,12.21
2022-10-11T04:31:05.059Z,12.18
2022-10-11T04:33:31.742Z,12.17
2022-10-11T04:35:58.301Z,12.18
2022-10-11T04:38:24.772Z,12.15
2022-10-11T04:40:51.510Z,12.15
2022-10-11T04:43:18.935Z,12.14
2022-10-11T04:45:46.050Z,12.14
2022-10-11T04:48:12.674Z,12.14
2022-10-11T04:50:39.149Z,12.11
2022-10-11T04:53:05.685Z,12.08
2022-10-11T04:55:32.266Z,12.08
2022-10-11T04:57:58.722Z,12.04
2022-10-11T05:00:25.218Z,12.03
2022-10-11T05:02:53.028Z,11.97
2022-10-11T05:05:19.474Z,11.99
2022-10-11T05:07:45.975Z,11.96
2022-10-11T05:10:12.480Z,11.94
2022-10-11T05:12:38.932Z,11.94
2022-10-11T05:15:06.262Z,11.92
2022-10-11T05:17:32.785Z,11.93
2022-10-11T05:19:59.274Z,11.93
2022-10-11T05:22:25.942Z,11.94
2022-10-11T05:24:52.598Z,11.91
2022-10-11T05:27:19.111Z,11.89
2022-10-11T05:29:45.770Z,11.90
2022-10-11T05:32:12.394Z,11.90
2022-10-11T05:34:38.894Z,11.94
2022-10-11T05:37:05.678Z,11.92
2022-10-11T05:39:32.472Z,11.93
2022-10-11T05:41:59.000Z,11.93
2022-10-11T05:44:25.636Z,11.90
2022-10-11T05:46:52.234Z,11.88
2022-10-11T05:49:18.683Z,11.89
2022-10-11T05:51:45.199Z,11.89
2022-10-11T05:54:11.831Z,11.89
2022-10-11T05:56:38.314Z,11.89
2022-10-11T05:59:05.262Z,11.90
2022-10-11T06:01:32.042Z,11.90
2022-10-11T06:03:58.609Z,11.90
2022-10-11T06:06:25.181Z,11.92
2022-10-11T06:08:51.980Z,11.92
2022-10-11T06:11:25.275Z,11.92
2022-10-11T06:13:56.169Z,11.88
2022-10-11T06:16:22.676Z,11.89
2022-10-11T06:18:49.197Z,11.92
2022-10-11T06:21:15.708Z,11.91
2022-10-11T06:23:42.268Z,11.89
2022-10-11T06:26:10.366Z,11.88
2022-10-11T06:28:37.429Z,11.87
2022-10-11T06:31:05.812Z,11.84
2022-10-11T06:33:33.487Z,11.84
2022-10-11T06:36:02.204Z,11.83
2022-10-11T06:38:28.900Z,11.83
2022-10-11T06:40:55.481Z,11.79
2022-10-11T06:43:22.756Z,11.79
2022-10-11T06:45:49.457Z,11.81
2022-10-11T06:48:16.085Z,11.81
2022-10-11T06:50:59.032Z,11.81
2022-10-11T06:53:27.344Z,11.83
2022-10-11T06:55:53.886Z,11.84
2022-10-11T06:58:20.418Z,11.86
2022-10-11T07:00:47.052Z,11.87
2022-10-11T07:03:13.569Z,11.84
2022-10-11T07:05:40.041Z,11.83
2022-10-11T07:08:06.601Z,11.85
2022-10-11T07:10:33.152Z,11.83
2022-10-11T07:12:59.618Z,11.84
2022-10-11T07:15:26.108Z,11.84
2022-10-11T07:17:52.735Z,11.86
2022-10-11T07:20:19.246Z,11.89
2022-10-11T07:22:45.720Z,11.89
2022-10-11T07:25:12.257Z,11.90
2022-10-11T07:27:38.733Z,11.93
2022-10-11T07:30:05.865Z,11.91
2022-10-11T07:32:32.349Z,11.94
2022-10-11T07:34:58.885Z,11.96
2022-10-11T07:37:25.415Z,11.98
2022-10-11T07:39:51.891Z,11.99
2022-10-11T07:42:18.379Z,12.02
2022-10-11T07:44:44.866Z,12.03
2022-10-11T07:47:11.649Z,12.09
2022-10-11T07:49:38.202Z,12.14
2022-10-11T07:52:05.221Z,12.16
2022-10-11T07:54:32.842Z,12.24
2022-10-11T07:56:59.624Z,12.29
2022-10-11T07:59:26.197Z,12.33
2022-10-11T08:01:52.734Z,12.39
2022-10-11T08:04:21.288Z,12.45
2022-10-11T08:06:52.528Z,12.49
2022-10-11T08:09:19.899Z,12.53
2022-10-11T08:11:46.362Z,12.60
2022-10-11T08:14:12.853Z,12.64
2022-10-11T08:16:39.433Z,12.70
2022-10-11T08:19:06.972Z,12.76
2022-10-11T08:21:33.727Z,12.83
2022-10-11T08:24:03.609Z,12.90
2022-10-11T08:26:30.424Z,12.99
2022-10-11T08:28:58.913Z,13.06
2022-10-11T08:31:25.536Z,13.17
2022-10-11T08:33:52.033Z,13.29
2022-10-11T08:36:18.526Z,13.44
2022-10-11T08:38:45.036Z,13.56
2022-10-11T08:41:26.712Z,13.69
2022-10-11T08:44:20.952Z,13.84
2022-10-11T08:47:00.330Z,13.96
2022-10-11T08:49:31.062Z,14.11
2022-10-11T08:52:02.615Z,14.25
2022-10-11T08:54:43.240Z,14.36
2022-10-11T08:57:16.114Z,14.46
2022-10-11T08:59:53.431Z,14.52
2022-10-11T09:02:55.642Z,14.57
2022-10-11T09:05:19.803Z,14.59
2022-10-11T09:08:09.030Z,14.60
2022-10-11T09:10:54.044Z,14.60
2022-10-11T09:13:34.538Z,14.60
2022-10-11T09:16:09.880Z,14.59
2022-10-11T09:19:09.424Z,14.63
2022-10-11T09:21:38.605Z,14.65
2022-10-11T09:24:05.173Z,14.71
2022-10-11T09:26:55.473Z,14.79
2022-10-11T09:29:37.390Z,14.84
2022-10-11T09:32:14.019Z,14.93
2022-10-11T09:34:40.606Z,15.06
2022-10-11T09:37:16.077Z,15.58
2022-10-11T09:39:51.455Z,15.92
2022-10-11T09:42:17.969Z,16.11
2022-10-11T09:44:51.668Z,16.22
2022-10-11T09:47:22.665Z,16.36
2022-10-11T09:49:54.540Z,16.54
2022-10-11T09:52:23.201Z,16.81
2022-10-11T09:54:56.866Z,17.01
2022-10-11T09:57:23.466Z,17.13
2022-10-11T10:00:11.951Z,17.16
2022-10-11T10:02:49.679Z,17.26
2022-10-11T10:05:20.427Z,17.34
2022-10-11T10:08:22.959Z,17.43
2022-10-11T10:11:05.723Z,17.63
2022-10-11T10:13:42.081Z,17.87
2022-10-11T10:16:27.720Z,18.08
2022-10-11T10:19:03.645Z,18.15
2022-10-11T10:21:37.215Z,18.21
2022-10-11T10:24:17.346Z,18.31
2022-10-11T10:27:08.377Z,18.38
2022-10-11T10:29:35.964Z,18.40
2022-10-11T10:32:14.864Z,18.36
2022-10-11T10:34:56.793Z,18.24
2022-10-11T10:37:34.527Z,18.29
2022-10-11T10:40:18.369Z,18.46
2022-10-11T10:42:44.969Z,18.60
2022-10-11T10:45:21.206Z,18.61
2022-10-11T10:47:51.438Z,18.76
2022-10-11T10:51:01.057Z,18.83
2022-10-11T10:53:42.109Z,18.98
2022-10-11T10:56:30.331Z,19.12
2022-10-11T10:59:03.178Z,19.29
2022-10-11T11:01:33.607Z,19.44
2022-10-11T11:04:32.456Z,19.60
2022-10-11T11:07:03.053Z,19.84
2022-10-11T11:09:58.597Z,20.02
2022-10-11T11:12:50.422Z,20.16
2022-10-11T11:15:32.247Z,20.17
2022-10-11T11:18:20.336Z,20.00
2022-10-11T11:20:49.699Z,19.94
2022-10-11T11:23:38.724Z,19.94
2022-10-11T11:26:41.993Z,20.05
2022-10-11T11:29:18.497Z,20.14
2022-10-11T11:31:54.325Z,20.10
2022-10-11T11:34:29.149Z,20.28
2022-10-11T11:37:00.096Z,20.43
2022-10-11T11:39:32.706Z,19.92
2022-10-11T11:42:15.915Z,19.53
2022-10-11T11:44:50.326Z,19.57
2022-10-11T11:47:18.076Z,19.61
2022-10-11T11:49:49.567Z,19.71
2022-10-11T11:52:46.213Z,19.97
2022-10-11T11:55:28.442Z,19.94
2022-10-11T11:58:07.146Z,19.73
2022-10-11T12:00:46.173Z,19.54
2022-10-11T12:03:21.591Z,19.36
2022-10-11T12:06:16.176Z,19.09
2022-10-11T12:08:47.143Z,19.06
2022-10-11T12:11:24.113Z,19.07
2022-10-11T12:13:53.221Z,18.87
2022-10-11T12:16:21.215Z,18.74
2022-10-11T12:18:56.832Z,18.70
2022-10-11T12:21:43.356Z,18.71
2022-10-11T12:24:21.854Z,18.91
2022-10-11T12:26:50.175Z,19.05
2022-10-11T12:29:43.597Z,19.01
2022-10-11T12:32:11.195Z,18.94
2022-10-11T12:34:44.117Z,18.94
2022-10-11T12:37:19.713Z,18.97
2022-10-11T12:39:50.863Z,18.82
2022-10-11T12:42:28.278Z,18.71
2022-10-11T12:45:13.339Z,18.74
2022-10-11T12:48:18.551Z,18.95
2022-10-11T12:50:48.066Z,18.98
2022-10-11T12:53:17.703Z,19.08
2022-10-11T12:56:29.088Z,19.13
2022-10-11T12:59:04.096Z,19.34
2022-10-11T13:01:37.358Z,19.39
2022-10-11T13:04:08.121Z,19.46
2022-10-11T13:06:53.765Z,19.73
2022-10-11T13:09:34.760Z,20.22
2022-10-11T13:12:09.549Z,21.03
2022-10-11T13:14:41.546Z,21.25
2022-10-11T13:17:35.782Z,21.43
2022-10-11T13:20:17.401Z,21.53
2022-10-11T13:22:47.517Z,21.42
2022-10-11T13:25:21.257Z,21.34
2022-10-11T13:27:49.187Z,21.42
2022-10-11T13:30:31.554Z,21.48
2022-10-11T13:32:59.711Z,21.48
2022-10-11T13:35:32.908Z,21.32
2022-10-11T13:38:00.487Z,21.17
2022-10-11T13:40:28.053Z,20.99
2022-10-11T13:42:55.223Z,20.73
2022-10-11T13:45:24.366Z,20.52
2022-10-11T13:47:53.383Z,20.48
2022-10-11T13:50:32.051Z,20.47
2022-10-11T13:53:21.289Z,20.48
2022-10-11T13:55:53.234Z,20.48
2022-10-11T13:58:42.844Z,20.56
2022-10-11T14:01:26.832Z,20.82
2022-10-11T14:04:00.482Z,20.94
2022-10-11T14:07:02.688Z,21.10
2022-10-11T14:09:33.882Z,21.38
2022-10-11T14:12:40.610Z,22.05
2022-10-11T14:15:24.585Z,23.31
2022-10-11T14:17:54.035Z,23.97
2022-10-11T14:20:32.278Z,24.47
2022-10-11T14:23:00.342Z,24.46
2022-10-11T14:25:26.900Z,23.83
2022-10-11T14:27:54.781Z,23.31
2022-10-11T14:30:26.543Z,22.76
2022-10-11T14:32:56.743Z,22.27
2022-10-11T14:35:28.892Z,22.07
2022-10-11T14:37:55.392Z,21.96
2022-10-11T14:40:27.510Z,21.84
2022-10-11T14:42:54.141Z,21.50
2022-10-11T14:45:23.410Z,21.32
2022-10-11T14:47:50.245Z,21.54
2022-10-11T14:50:36.599Z,21.55
2022-10-11T14:53:04.677Z,21.50
2022-10-11T14:55:32.154Z,21.61
2022-10-11T14:57:58.707Z,21.68
2022-10-11T15:00:28.425Z,21.95
2022-10-11T15:02:55.972Z,21.89
2022-10-11T15:05:24.427Z,22.04
2022-10-11T15:07:51.739Z,21.81
2022-10-11T15:10:24.302Z,21.58
2022-10-11T15:12:52.706Z,21.30
2022-10-11T15:15:22.583Z,21.11
2022-10-11T15:17:59.675Z,21.01
2022-10-11T15:20:30.151Z,20.79
2022-10-11T15:22:57.685Z,20.84
2022-10-11T15:25:25.528Z,20.83
2022-10-11T15:27:52.752Z,20.71
2022-10-11T15:30:23.352Z,20.73
2022-10-11T15:32:50.457Z,20.71
2022-10-11T15:35:18.047Z,20.85
2022-10-11T15:37:44.756Z,20.93
2022-10-11T15:40:33.733Z,20.92
2022-10-11T15:43:00.524Z,20.76
2022-10-11T15:45:27.466Z,20.51
2022-10-11T15:47:54.117Z,20.46
2022-10-11T15:50:33.931Z,20.17
2022-10-11T15:53:18.626Z,19.75
2022-10-11T15:55:50.357Z,19.45
2022-10-11T15:58:24.324Z,19.39
2022-10-11T16:00:56.205Z,19.32
2022-10-11T16:03:27.200Z,19.39
2022-10-11T16:05:54.753Z,19.75
2022-10-11T16:08:21.480Z,20.60
2022-10-11T16:10:48.474Z,20.95
2022-10-11T16:13:15.841Z,20.45
2022-10-11T16:15:43.275Z,20.23
2022-10-11T16:18:13.252Z,20.17
2022-10-11T16:20:44.762Z,20.43
2022-10-11T16:23:12.333Z,20.52
2022-10-11T16:25:39.493Z,20.49
2022-10-11T16:28:07.953Z,20.40
2022-10-11T16:30:38.831Z,20.35
2022-10-11T16:33:05.630Z,20.27
2022-10-11T16:35:32.761Z,20.14
2022-10-11T16:38:00.819Z,20.05
2022-10-11T16:40:29.915Z,19.95
2022-10-11T16:42:56.414Z,19.87
2022-10-11T16:45:23.557Z,19.75
2022-10-11T16:47:50.365Z,19.61
2022-10-11T16:50:16.850Z,19.47
2022-10-11T16:52:43.393Z,19.35
2022-10-11T16:55:10.059Z,19.22
2022-10-11T16:57:37.814Z,19.09
2022-10-11T17:00:07.429Z,18.96
2022-10-11T17:02:34.162Z,18.88
2022-10-11T17:05:01.124Z,18.74
2022-10-11T17:07:28.276Z,18.64
2022-10-11T17:09:55.127Z,18.57
2022-10-11T17:12:23.257Z,18.43
2022-10-11T17:14:50.187Z,18.36
2022-10-11T17:17:17.811Z,18.30
2022-10-11T17:19:45.495Z,18.19
2022-10-11T17:22:14.542Z,18.10
2022-10-11T17:24:41.629Z,18.02
2022-10-11T17:27:08.933Z,17.93
2022-10-11T17:29:35.968Z,17.80
2022-10-11T17:32:03.160Z,17.72
2022-10-11T17:34:29.732Z,17.64
2022-10-11T17:36:56.285Z,17.54
2022-10-11T17:39:24.077Z,17.45
2022-10-11T17:41:50.592Z,17.36
2022-10-11T17:44:18.468Z,17.31
2022-10-11T17:46:45.392Z,17.27
2022-10-11T17:49:12.725Z,17.17
2022-10-11T17:51:40.299Z,17.13
2022-10-11T17:54:12.288Z,17.04
2022-10-11T17:56:40.889Z,16.99
2022-10-11T17:59:08.531Z,16.90
2022-10-11T18:01:35.739Z,16.83
2022-10-11T18:04:04.860Z,16.76
2022-10-11T18:06:34.229Z,16.68
2022-10-11T18:09:02.410Z,16.63
2022-10-11T18:11:29.339Z,16.55
2022-10-11T18:13:56.496Z,16.46
2022-10-11T18:16:27.073Z,16.41
2022-10-11T18:18:54.747Z,16.37
2022-10-11T18:21:21.323Z,16.28
2022-10-11T18:23:47.951Z,16.22
2022-10-11T18:26:17.117Z,16.16
2022-10-11T18:28:44.765Z,16.18
2022-10-11T18:31:23.618Z,16.17
2022-10-11T18:33:51.112Z,16.18
2022-10-11T18:36:20.815Z,16.13
2022-10-11T18:38:49.361Z,16.11
2022-10-11T18:41:19.723Z,16.08
2022-10-11T18:43:54.671Z,16.06
2022-10-11T18:46:22.478Z,16.03
2022-10-11T18:48:52.273Z,16.00
2022-10-11T18:51:21.573Z,15.93
2022-10-11T18:53:49.358Z,15.92
2022-10-11T18:56:17.685Z,15.90
2022-10-11T18:58:44.766Z,15.88
2022-10-11T19:01:17.014Z,15.80
2022-10-11T19:03:48.092Z,15.75
2022-10-11T19:06:17.710Z,15.70
2022-10-11T19:08:45.803Z,15.68
2022-10-11T19:11:15.603Z,15.60
2022-10-11T19:13:43.385Z,15.56
2022-10-11T19:16:12.213Z,15.53
2022-10-11T19:18:43.899Z,15.53
2022-10-11T19:21:12.787Z,15.48
2022-10-11T19:23:42.158Z,15.43
2022-10-11T19:26:13.922Z,15.39
2022-10-11T19:28:40.718Z,15.36
2022-10-11T19:31:10.102Z,15.31
2022-10-11T19:33:37.205Z,15.28
2022-10-11T19:36:05.740Z,15.22
2022-10-11T19:38:34.512Z,15.16
2022-10-11T19:41:02.182Z,15.13
2022-10-11T19:43:28.668Z,15.08
2022-10-11T19:46:03.095Z,15.00
2022-10-11T19:48:30.142Z,14.95
2022-10-11T19:51:09.105Z,14.89
2022-10-11T19:53:36.074Z,14.85
2022-10-11T19:56:04.652Z,14.80
2022-10-11T19:58:31.473Z,14.75
2022-10-11T20:01:07.183Z,14.75
2022-10-11T20:03:34.485Z,14.76
2022-10-11T20:06:02.588Z,14.76
2022-10-11T20:08:31.319Z,14.76
2022-10-11T20:10:59.700Z,14.74
2022-10-11T20:13:30.052Z,14.73
2022-10-11T20:16:01.166Z,14.73
2022-10-11T20:18:29.718Z,14.73
2022-10-11T20:20:59.382Z,14.72
2022-10-11T20:23:27.735Z,14.72
2022-10-11T20:26:04.212Z,14.72
2022-10-11T20:28:31.973Z,14.69
2022-10-11T20:31:00.535Z,14.66
2022-10-11T20:33:29.097Z,14.64
2022-10-11T20:36:10.560Z,14.60
2022-10-11T20:38:39.765Z,14.57
2022-10-11T20:41:09.127Z,14.54
2022-10-11T20:43:35.693Z,14.51
2022-10-11T20:46:03.483Z,14.46
2022-10-11T20:48:31.818Z,14.44
2022-10-11T20:50:58.712Z,14.43
2022-10-11T20:53:25.542Z,14.42
2022-10-11T20:55:52.369Z,14.36
2022-10-11T20:58:19.237Z,14.35
2022-10-11T21:00:46.834Z,14.34
2022-10-11T21:03:13.856Z,14.30
2022-10-11T21:05:40.579Z,14.26
2022-10-11T21:08:07.330Z,14.25
2022-10-11T21:10:34.551Z,14.24
2022-10-11T21:13:01.170Z,14.21
2022-10-11T21:15:30.486Z,14.16
2022-10-11T21:17:57.384Z,14.13
2022-10-11T21:20:25.036Z,14.11
2022-10-11T21:22:51.745Z,14.08
2022-10-11T21:25:18.226Z,14.03
2022-10-11T21:27:44.714Z,14.02
2022-10-11T21:30:11.238Z,13.97
2022-10-11T21:32:38.060Z,13.94
2022-10-11T21:35:04.777Z,13.88
2022-10-11T21:37:31.299Z,13.86
2022-10-11T21:39:57.825Z,13.88
2022-10-11T21:42:29.315Z,13.88
2022-10-11T21:44:56.101Z,13.87
2022-10-11T21:47:22.594Z,13.90
2022-10-11T21:49:49.157Z,13.88
2022-10-11T21:52:16.082Z,13.91
2022-10-11T21:54:42.555Z,13.92
2022-10-11T21:57:09.177Z,13.92
2022-10-11T21:59:35.622Z,13.95
2022-10-11T22:02:02.381Z,13.94
2022-10-11T22:04:29.033Z,13.93
2022-10-11T22:06:55.693Z,13.92
2022-10-11T22:09:22.275Z,13.91
2022-10-11T22:11:48.798Z,13.89
2022-10-11T22:14:15.982Z,13.85
2022-10-11T22:16:43.681Z,13.87
2022-10-11T22:19:10.239Z,13.82
2022-10-11T22:21:39.187Z,13.83
2022-10-11T22:24:09.362Z,13.81
2022-10-11T22:26:35.936Z,13.79
2022-10-11T22:29:02.698Z,13.76
2022-10-11T22:31:30.274Z,13.73
2022-10-11T22:33:58.621Z,13.72
2022-10-11T22:36:26.673Z,13.69
2022-10-11T22:38:54.108Z,13.66
2022-10-11T22:41:20.747Z,13.64
2022-10-11T22:43:47.240Z,13.63
2022-10-11T22:46:13.831Z,13.60
2022-10-11T22:48:40.545Z,13.56
2022-10-11T22:51:07.331Z,13.55
2022-10-11T22:53:33.845Z,13.54
2022-10-11T22:56:00.656Z,13.51
2022-10-11T22:58:27.349Z,13.51
2022-10-11T23:00:54.043Z,13.49
2022-10-11T23:03:20.654Z,13.45
2022-10-11T23:05:57.579Z,13.41
2022-10-11T23:08:24.545Z,13.43
2022-10-11T23:10:51.297Z,13.40
2022-10-11T23:13:17.970Z,13.37
2022-10-11T23:15:44.569Z,13.37
2022-10-11T23:18:11.556Z,13.34
2022-10-11T23:20:38.805Z,13.32
2022-10-11T23:23:06.356Z,13.33
2022-10-11T23:25:32.850Z,13.29
2022-10-11T23:28:01.127Z,13.31
2022-10-11T23:30:28.792Z,13.33
2022-10-11T23:32:55.381Z,13.32
2022-10-11T23:35:21.892Z,13.32
2022-10-11T23:37:48.577Z,13.35
2022-10-11T23:40:15.456Z,13.36
2022-10-11T23:42:42.085Z,13.38
2022-10-11T23:45:09.113Z,13.38
2022-10-11T23:47:35.827Z,13.38
2022-10-11T23:50:02.482Z,13.38
2022-10-11T23:52:28.948Z,13.38
2022-10-11T23:54:56.192Z,13.36
2022-10-11T23:57:22.648Z,13.34
2022-10-11T23:59:49.369Z,13.36
